sensor_id;sensor_type;location;lat;lon;timestamp;P1;durP1;ratioP1;P2;durP2;ratioP2
16177;SDS011;8195;51.220;9.746;2024-03-17T06:13:23;8.50;;;7.60;;
16177;SDS011;8195;51.220;9.746;2024-03-17T06:17:43;7.90;;;7.10;;
16177;SDS011;8195;51.220;9.746;2024-03-17T06:22:04;6.80;;;5.70;;
16177;SDS011;8195;51.220;9.746;2024-03-17T06:26:24;6.87;;;5.70;;
16177;SDS011;8195;51.220;9.746;2024-03-17T06:30:45;7.57;;;6.20;;
16177;SDS011;8195;51.220;9.746;2024-03-17T06:35:06;6.30;;;5.80;;
16177;SDS011;8195;51.220;9.746;2024-03-17T06:39:26;8.40;;;6.80;;
16177;SDS011;8195;51.220;9.746;2024-03-17T06:43:47;6.83;;;6.23;;
16177;SDS011;8195;51.220;9.746;2024-03-17T06:48:07;8.00;;;6.40;;
16177;SDS011;8195;51.220;9.746;2024-03-17T06:52:28;6.57;;;5.63;;
16177;SDS011;8195;51.220;9.746;2024-03-17T06:56:48;6.37;;;5.50;;
16177;SDS011;8195;51.220;9.746;2024-03-17T07:01:08;7.20;;;6.50;;
16177;SDS011;8195;51.220;9.746;2024-03-17T07:05:29;7.83;;;7.13;;
16177;SDS011;8195;51.220;9.746;2024-03-17T07:09:49;7.87;;;7.10;;
16177;SDS011;8195;51.220;9.746;2024-03-17T07:14:10;8.23;;;7.43;;
16177;SDS011;8195;51.220;9.746;2024-03-17T07:18:30;8.50;;;7.60;;
16177;SDS011;8195;51.220;9.746;2024-03-17T07:22:51;8.43;;;7.73;;
16177;SDS011;8195;51.220;9.746;2024-03-17T07:27:12;8.87;;;7.97;;
16177;SDS011;8195;51.220;9.746;2024-03-17T07:31:32;8.27;;;7.43;;
16177;SDS011;8195;51.220;9.746;2024-03-17T07:35:57;8.93;;;7.73;;
16177;SDS011;8195;51.220;9.746;2024-03-17T07:40:20;8.10;;;7.40;;
16177;SDS011;8195;51.220;9.746;2024-03-17T07:44:43;8.17;;;7.20;;
16177;SDS011;8195;51.220;9.746;2024-03-17T07:49:04;9.43;;;7.23;;
16177;SDS011;8195;51.220;9.746;2024-03-17T07:53:24;8.73;;;7.77;;
16177;SDS011;8195;51.220;9.746;2024-03-17T07:57:45;9.23;;;7.93;;
16177;SDS011;8195;51.220;9.746;2024-03-17T08:02:05;8.30;;;7.53;;
16177;SDS011;8195;51.220;9.746;2024-03-17T08:06:27;9.77;;;8.10;;
16177;SDS011;8195;51.220;9.746;2024-03-17T08:10:47;9.20;;;8.30;;
16177;SDS011;8195;51.220;9.746;2024-03-17T08:15:08;9.27;;;7.83;;
16177;SDS011;8195;51.220;9.746;2024-03-17T08:19:29;9.20;;;8.27;;
16177;SDS011;8195;51.220;9.746;2024-03-17T08:23:49;9.43;;;8.50;;
16177;SDS011;8195;51.220;9.746;2024-03-17T08:28:13;10.50;;;9.50;;
16177;SDS011;8195;51.220;9.746;2024-03-17T08:32:42;12.30;;;9.30;;
16177;SDS011;8195;51.220;9.746;2024-03-17T08:37:03;9.50;;;8.33;;
16177;SDS011;8195;51.220;9.746;2024-03-17T08:41:24;11.27;;;9.67;;
16177;SDS011;8195;51.220;9.746;2024-03-17T08:50:52;10.77;;;9.77;;
16177;SDS011;8195;51.220;9.746;2024-03-17T08:55:20;11.67;;;10.57;;
16177;SDS011;8195;51.220;9.746;2024-03-17T08:59:41;11.27;;;10.27;;
16177;SDS011;8195;51.220;9.746;2024-03-17T09:04:02;10.90;;;9.67;;
16177;SDS011;8195;51.220;9.746;2024-03-17T09:08:22;11.07;;;10.07;;
16177;SDS011;8195;51.220;9.746;2024-03-17T09:12:46;11.77;;;10.67;;
16177;SDS011;8195;51.220;9.746;2024-03-17T09:17:06;12.67;;;11.37;;
16177;SDS011;8195;51.220;9.746;2024-03-17T09:21:27;12.03;;;10.83;;
16177;SDS011;8195;51.220;9.746;2024-03-17T09:31:15;11.43;;;10.37;;
16177;SDS011;8195;51.220;9.746;2024-03-17T09:40:15;12.27;;;11.17;;
16177;SDS011;8195;51.220;9.746;2024-03-17T09:44:46;11.77;;;10.60;;
16177;SDS011;8195;51.220;9.746;2024-03-17T09:49:14;12.43;;;11.13;;
16177;SDS011;8195;51.220;9.746;2024-03-17T09:54:05;11.20;;;10.03;;
16177;SDS011;8195;51.220;9.746;2024-03-17T09:58:50;10.80;;;9.80;;
16177;SDS011;8195;51.220;9.746;2024-03-17T10:03:15;11.13;;;10.03;;
16177;SDS011;8195;51.220;9.746;2024-03-17T10:08:08;12.30;;;11.00;;
16177;SDS011;8195;51.220;9.746;2024-03-17T10:13:01;11.33;;;10.37;;
16177;SDS011;8195;51.220;9.746;2024-03-17T10:17:32;10.30;;;9.40;;
16177;SDS011;8195;51.220;9.746;2024-03-17T10:22:05;11.30;;;10.13;;
16177;SDS011;8195;51.220;9.746;2024-03-17T10:26:25;10.97;;;9.93;;
16177;SDS011;8195;51.220;9.746;2024-03-17T10:31:09;10.93;;;10.00;;
16177;SDS011;8195;51.220;9.746;2024-03-17T10:35:50;10.80;;;9.80;;
16177;SDS011;8195;51.220;9.746;2024-03-17T10:40:56;10.63;;;9.63;;
16177;SDS011;8195;51.220;9.746;2024-03-17T10:46:03;9.70;;;8.70;;
16177;SDS011;8195;51.220;9.746;2024-03-17T10:51:14;10.80;;;9.80;;
16177;SDS011;8195;51.220;9.746;2024-03-17T10:55:42;9.80;;;9.00;;
16177;SDS011;8195;51.220;9.746;2024-03-17T11:00:06;15.50;;;14.00;;
16177;SDS011;8195;51.220;9.746;2024-03-17T11:04:27;10.23;;;9.20;;
16177;SDS011;8195;51.220;9.746;2024-03-17T11:08:47;10.33;;;9.33;;
16177;SDS011;8195;51.220;9.746;2024-03-17T11:13:12;9.83;;;8.83;;
16177;SDS011;8195;51.220;9.746;2024-03-17T11:17:42;10.07;;;9.07;;
16177;SDS011;8195;51.220;9.746;2024-03-17T11:27:15;9.93;;;9.03;;
16177;SDS011;8195;51.220;9.746;2024-03-17T11:31:59;10.47;;;9.37;;
16177;SDS011;8195;51.220;9.746;2024-03-17T11:40:43;10.33;;;9.43;;
16177;SDS011;8195;51.220;9.746;2024-03-17T11:45:04;10.60;;;9.60;;
16177;SDS011;8195;51.220;9.746;2024-03-17T11:49:28;9.90;;;9.00;;
16177;SDS011;8195;51.220;9.746;2024-03-17T11:53:57;9.40;;;8.60;;
16177;SDS011;8195;51.220;9.746;2024-03-17T11:58:18;9.83;;;8.83;;
16177;SDS011;8195;51.220;9.746;2024-03-17T12:02:38;9.30;;;8.37;;
16177;SDS011;8195;51.220;9.746;2024-03-17T12:06:59;8.40;;;7.70;;
16177;SDS011;8195;51.220;9.746;2024-03-17T12:11:19;8.53;;;7.67;;
16177;SDS011;8195;51.220;9.746;2024-03-17T12:15:40;9.03;;;8.23;;
16177;SDS011;8195;51.220;9.746;2024-03-17T12:20:00;9.93;;;8.93;;
16177;SDS011;8195;51.220;9.746;2024-03-17T12:24:21;9.10;;;7.97;;
16177;SDS011;8195;51.220;9.746;2024-03-17T12:28:45;8.73;;;7.97;;
16177;SDS011;8195;51.220;9.746;2024-03-17T12:33:06;11.17;;;8.43;;
16177;SDS011;8195;51.220;9.746;2024-03-17T12:37:29;10.03;;;9.13;;
16177;SDS011;8195;51.220;9.746;2024-03-17T12:42:06;10.37;;;9.37;;
16177;SDS011;8195;51.220;9.746;2024-03-17T12:46:26;9.77;;;8.83;;
16177;SDS011;8195;51.220;9.746;2024-03-17T12:50:47;10.43;;;9.53;;
16177;SDS011;8195;51.220;9.746;2024-03-17T12:55:07;10.63;;;9.73;;
16177;SDS011;8195;51.220;9.746;2024-03-17T12:59:38;9.60;;;8.70;;
16177;SDS011;8195;51.220;9.746;2024-03-17T13:04:04;9.80;;;8.80;;
16177;SDS011;8195;51.220;9.746;2024-03-17T13:08:25;26.80;;;9.47;;
16177;SDS011;8195;51.220;9.746;2024-03-17T13:12:47;9.40;;;8.57;;
16177;SDS011;8195;51.220;9.746;2024-03-17T13:17:08;10.63;;;9.17;;
16177;SDS011;8195;51.220;9.746;2024-03-17T13:21:34;10.33;;;9.43;;
16177;SDS011;8195;51.220;9.746;2024-03-17T13:25:55;12.13;;;8.77;;
16177;SDS011;8195;51.220;9.746;2024-03-17T13:30:16;9.23;;;8.33;;
16177;SDS011;8195;51.220;9.746;2024-03-17T13:34:37;10.20;;;9.07;;
16177;SDS011;8195;51.220;9.746;2024-03-17T13:38:58;9.20;;;8.37;;
16177;SDS011;8195;51.220;9.746;2024-03-17T13:43:18;8.83;;;8.03;;
16177;SDS011;8195;51.220;9.746;2024-03-17T13:47:39;8.17;;;7.57;;
16177;SDS011;8195;51.220;9.746;2024-03-17T13:51:59;9.00;;;7.93;;
16177;SDS011;8195;51.220;9.746;2024-03-17T13:56:20;8.97;;;8.23;;
16177;SDS011;8195;51.220;9.746;2024-03-17T14:00:40;8.93;;;8.10;;
16177;SDS011;8195;51.220;9.746;2024-03-17T14:05:00;8.90;;;8.20;;
16177;SDS011;8195;51.220;9.746;2024-03-17T14:09:21;9.30;;;8.40;;
16177;SDS011;8195;51.220;9.746;2024-03-17T14:13:41;9.30;;;8.40;;
16177;SDS011;8195;51.220;9.746;2024-03-17T14:18:01;9.30;;;8.40;;
16177;SDS011;8195;51.220;9.746;2024-03-17T14:22:22;8.63;;;7.83;;
16177;SDS011;8195;51.220;9.746;2024-03-17T14:26:42;8.87;;;7.97;;
16177;SDS011;8195;51.220;9.746;2024-03-17T14:31:02;8.37;;;7.60;;
16177;SDS011;8195;51.220;9.746;2024-03-17T14:35:23;8.77;;;7.90;;
16177;SDS011;8195;51.220;9.746;2024-03-17T14:39:43;9.20;;;7.50;;
16177;SDS011;8195;51.220;9.746;2024-03-17T14:44:03;8.00;;;7.20;;
16177;SDS011;8195;51.220;9.746;2024-03-17T14:48:24;8.47;;;7.60;;
16177;SDS011;8195;51.220;9.746;2024-03-17T14:52:44;8.73;;;7.93;;
16177;SDS011;8195;51.220;9.746;2024-03-17T14:57:05;8.80;;;7.97;;
16177;SDS011;8195;51.220;9.746;2024-03-17T15:01:25;8.30;;;6.80;;
16177;SDS011;8195;51.220;9.746;2024-03-17T15:05:45;8.10;;;7.30;;
16177;SDS011;8195;51.220;9.746;2024-03-17T15:10:06;8.40;;;7.60;;
16177;SDS011;8195;51.220;9.746;2024-03-17T15:14:27;9.10;;;8.20;;
16177;SDS011;8195;51.220;9.746;2024-03-17T15:18:47;8.43;;;7.63;;
16177;SDS011;8195;51.220;9.746;2024-03-17T15:23:07;9.00;;;8.20;;
16177;SDS011;8195;51.220;9.746;2024-03-17T15:27:28;7.77;;;7.00;;
16177;SDS011;8195;51.220;9.746;2024-03-17T15:31:48;7.90;;;7.20;;
16177;SDS011;8195;51.220;9.746;2024-03-17T15:36:08;11.53;;;10.43;;
16177;SDS011;8195;51.220;9.746;2024-03-17T15:40:29;9.60;;;8.23;;
16177;SDS011;8195;51.220;9.746;2024-03-17T15:44:49;9.07;;;8.27;;
16177;SDS011;8195;51.220;9.746;2024-03-17T15:49:10;10.20;;;9.20;;
16177;SDS011;8195;51.220;9.746;2024-03-17T15:53:30;9.07;;;8.20;;
16177;SDS011;8195;51.220;9.746;2024-03-17T15:57:50;13.73;;;12.43;;
16177;SDS011;8195;51.220;9.746;2024-03-17T16:02:11;8.03;;;7.23;;
16177;SDS011;8195;51.220;9.746;2024-03-17T16:06:31;8.53;;;6.83;;
16177;SDS011;8195;51.220;9.746;2024-03-17T16:10:52;11.93;;;10.83;;
16177;SDS011;8195;51.220;9.746;2024-03-17T16:15:17;13.07;;;11.77;;
16177;SDS011;8195;51.220;9.746;2024-03-17T16:19:37;12.93;;;11.60;;
16177;SDS011;8195;51.220;9.746;2024-03-17T16:24:02;20.47;;;18.37;;
16177;SDS011;8195;51.220;9.746;2024-03-17T16:28:26;8.20;;;7.40;;
16177;SDS011;8195;51.220;9.746;2024-03-17T16:32:46;8.30;;;7.60;;
16177;SDS011;8195;51.220;9.746;2024-03-17T16:37:06;8.57;;;7.67;;
16177;SDS011;8195;51.220;9.746;2024-03-17T16:41:27;7.30;;;6.70;;
16177;SDS011;8195;51.220;9.746;2024-03-17T16:45:50;8.13;;;7.33;;
16177;SDS011;8195;51.220;9.746;2024-03-17T16:50:18;8.20;;;7.40;;
16177;SDS011;8195;51.220;9.746;2024-03-17T16:54:38;8.47;;;7.60;;
16177;SDS011;8195;51.220;9.746;2024-03-17T16:58:58;8.37;;;7.57;;
16177;SDS011;8195;51.220;9.746;2024-03-17T17:03:19;7.87;;;7.10;;
16177;SDS011;8195;51.220;9.746;2024-03-17T17:07:39;8.10;;;6.73;;
16177;SDS011;8195;51.220;9.746;2024-03-17T17:12:00;7.70;;;7.00;;
16177;SDS011;8195;51.220;9.746;2024-03-17T17:16:21;8.00;;;7.20;;
16177;SDS011;8195;51.220;9.746;2024-03-17T17:20:41;8.50;;;7.70;;
16177;SDS011;8195;51.220;9.746;2024-03-17T17:25:02;8.83;;;7.90;;
16177;SDS011;8195;51.220;9.746;2024-03-17T17:29:23;7.60;;;6.90;;
16177;SDS011;8195;51.220;9.746;2024-03-17T17:33:44;6.80;;;6.10;;
16177;SDS011;8195;51.220;9.746;2024-03-17T17:38:04;7.87;;;7.27;;
16177;SDS011;8195;51.220;9.746;2024-03-17T17:42:24;10.23;;;7.43;;
16177;SDS011;8195;51.220;9.746;2024-03-17T17:46:44;7.20;;;6.43;;
16177;SDS011;8195;51.220;9.746;2024-03-17T17:51:05;7.57;;;6.97;;
16177;SDS011;8195;51.220;9.746;2024-03-17T17:55:28;7.83;;;6.80;;
16177;SDS011;8195;51.220;9.746;2024-03-17T17:59:48;7.17;;;6.57;;
16177;SDS011;8195;51.220;9.746;2024-03-17T18:04:09;7.63;;;6.93;;
16177;SDS011;8195;51.220;9.746;2024-03-17T18:08:30;7.17;;;6.57;;
16177;SDS011;8195;51.220;9.746;2024-03-17T18:12:51;7.17;;;6.50;;
16177;SDS011;8195;51.220;9.746;2024-03-17T18:17:11;6.30;;;5.80;;
16177;SDS011;8195;51.220;9.746;2024-03-17T18:21:32;6.53;;;5.93;;
16177;SDS011;8195;51.220;9.746;2024-03-17T18:25:52;6.87;;;6.20;;
16177;SDS011;8195;51.220;9.746;2024-03-17T18:30:13;7.07;;;6.37;;
16177;SDS011;8195;51.220;9.746;2024-03-17T18:34:33;6.97;;;6.37;;
16177;SDS011;8195;51.220;9.746;2024-03-17T18:38:53;6.87;;;6.20;;
16177;SDS011;8195;51.220;9.746;2024-03-17T18:43:17;6.60;;;6.00;;
16177;SDS011;8195;51.220;9.746;2024-03-17T18:47:37;6.77;;;6.17;;
16177;SDS011;8195;51.220;9.746;2024-03-17T18:51:57;8.37;;;6.37;;
16177;SDS011;8195;51.220;9.746;2024-03-17T18:56:18;7.43;;;6.70;;
16177;SDS011;8195;51.220;9.746;2024-03-17T19:00:38;7.47;;;6.87;;
16177;SDS011;8195;51.220;9.746;2024-03-17T19:04:59;7.13;;;6.53;;
16177;SDS011;8195;51.220;9.746;2024-03-17T19:09:19;7.23;;;6.53;;
16177;SDS011;8195;51.220;9.746;2024-03-17T19:13:39;6.70;;;6.10;;
16177;SDS011;8195;51.220;9.746;2024-03-17T19:18:00;6.33;;;5.73;;
16177;SDS011;8195;51.220;9.746;2024-03-17T19:22:20;6.00;;;5.50;;
16177;SDS011;8195;51.220;9.746;2024-03-17T19:26:41;6.70;;;6.10;;
16177;SDS011;8195;51.220;9.746;2024-03-17T19:31:02;6.50;;;6.00;;
16177;SDS011;8195;51.220;9.746;2024-03-17T19:35:22;6.53;;;5.90;;
16177;SDS011;8195;51.220;9.746;2024-03-17T19:39:42;7.23;;;6.17;;
16177;SDS011;8195;51.220;9.746;2024-03-17T19:44:03;7.73;;;5.97;;
16177;SDS011;8195;51.220;9.746;2024-03-17T19:48:23;7.07;;;5.97;;
16177;SDS011;8195;51.220;9.746;2024-03-17T19:52:44;6.43;;;5.70;;
16177;SDS011;8195;51.220;9.746;2024-03-17T19:57:05;7.40;;;6.00;;
16177;SDS011;8195;51.220;9.746;2024-03-17T20:01:26;7.50;;;6.73;;
16177;SDS011;8195;51.220;9.746;2024-03-17T20:05:46;6.97;;;6.30;;
16177;SDS011;8195;51.220;9.746;2024-03-17T20:10:06;7.43;;;6.80;;
16177;SDS011;8195;51.220;9.746;2024-03-17T20:14:27;10.13;;;8.37;;
16177;SDS011;8195;51.220;9.746;2024-03-17T20:18:47;12.17;;;9.70;;
16177;SDS011;8195;51.220;9.746;2024-03-17T20:23:08;10.23;;;9.03;;
16177;SDS011;8195;51.220;9.746;2024-03-17T20:27:28;15.10;;;9.80;;
16177;SDS011;8195;51.220;9.746;2024-03-17T20:31:49;12.70;;;11.00;;
16177;SDS011;8195;51.220;9.746;2024-03-17T20:36:09;12.93;;;10.93;;
16177;SDS011;8195;51.220;9.746;2024-03-17T20:40:30;13.03;;;11.67;;
16177;SDS011;8195;51.220;9.746;2024-03-17T20:44:51;13.30;;;11.23;;
16177;SDS011;8195;51.220;9.746;2024-03-17T20:49:11;15.20;;;12.27;;
16177;SDS011;8195;51.220;9.746;2024-03-17T20:53:31;14.27;;;11.70;;
16177;SDS011;8195;51.220;9.746;2024-03-17T20:57:52;13.60;;;11.67;;
16177;SDS011;8195;51.220;9.746;2024-03-17T21:02:12;15.93;;;12.90;;
16177;SDS011;8195;51.220;9.746;2024-03-17T21:06:33;14.07;;;12.57;;
16177;SDS011;8195;51.220;9.746;2024-03-17T21:10:56;15.43;;;13.00;;
16177;SDS011;8195;51.220;9.746;2024-03-17T21:15:17;14.73;;;12.80;;
16177;SDS011;8195;51.220;9.746;2024-03-17T21:19:37;15.73;;;12.57;;
16177;SDS011;8195;51.220;9.746;2024-03-17T21:23:58;15.17;;;13.13;;
16177;SDS011;8195;51.220;9.746;2024-03-17T21:28:18;13.70;;;12.03;;
16177;SDS011;8195;51.220;9.746;2024-03-17T21:32:39;15.53;;;13.50;;
16177;SDS011;8195;51.220;9.746;2024-03-17T21:37:00;16.97;;;12.80;;
16177;SDS011;8195;51.220;9.746;2024-03-17T21:41:20;18.60;;;14.03;;
16177;SDS011;8195;51.220;9.746;2024-03-17T21:45:40;18.23;;;12.80;;
16177;SDS011;8195;51.220;9.746;2024-03-17T21:50:01;17.73;;;13.37;;
16177;SDS011;8195;51.220;9.746;2024-03-17T21:54:21;16.63;;;13.63;;
16177;SDS011;8195;51.220;9.746;2024-03-17T21:58:41;17.63;;;13.63;;
16177;SDS011;8195;51.220;9.746;2024-03-17T22:03:02;17.67;;;13.67;;
16177;SDS011;8195;51.220;9.746;2024-03-17T22:07:23;15.90;;;13.43;;
16177;SDS011;8195;51.220;9.746;2024-03-17T22:11:44;18.27;;;13.70;;
16177;SDS011;8195;51.220;9.746;2024-03-17T22:16:04;15.90;;;11.97;;
16177;SDS011;8195;51.220;9.746;2024-03-17T22:20:25;16.87;;;12.73;;
16177;SDS011;8195;51.220;9.746;2024-03-17T22:24:45;17.13;;;13.40;;
16177;SDS011;8195;51.220;9.746;2024-03-17T22:29:06;18.73;;;13.70;;
16177;SDS011;8195;51.220;9.746;2024-03-17T22:33:27;15.03;;;13.07;;
16177;SDS011;8195;51.220;9.746;2024-03-17T22:37:48;15.67;;;12.87;;
16177;SDS011;8195;51.220;9.746;2024-03-17T22:46:53;14.77;;;12.30;;
16177;SDS011;8195;51.220;9.746;2024-03-17T22:51:26;15.27;;;11.80;;
16177;SDS011;8195;51.220;9.746;2024-03-17T23:01:23;14.07;;;12.40;;
16177;SDS011;8195;51.220;9.746;2024-03-17T23:06:28;14.53;;;11.93;;
16177;SDS011;8195;51.220;9.746;2024-03-17T23:27:03;11.60;;;10.33;;
16177;SDS011;8195;51.220;9.746;2024-03-17T23:36:24;14.63;;;11.57;;
16177;SDS011;8195;51.220;9.746;2024-03-17T23:41:22;14.43;;;10.60;;
16177;SDS011;8195;51.220;9.746;2024-03-17T23:46:28;13.67;;;11.77;;
16177;SDS011;8195;51.220;9.746;2024-03-17T23:51:46;12.87;;;10.90;;
